createdAt,value
2018-06-01T00:01:39.837Z,17.47
2018-06-01T00:04:07.345Z,16.23
2018-06-01T00:06:35.170Z,17.17
2018-06-01T00:09:02.681Z,17.10
2018-06-01T00:11:30.958Z,19.20
2018-06-01T00:13:59.263Z,18.17
2018-06-01T00:16:26.777Z,18.07
2018-06-01T00:18:54.320Z,18.20
2018-06-01T00:21:21.834Z,20.73
2018-06-01T00:23:49.347Z,19.10
2018-06-01T00:26:16.882Z,19.27
2018-06-01T00:28:44.393Z,19.30
2018-06-01T00:31:11.932Z,19.57
2018-06-01T00:33:39.450Z,18.10
2018-06-01T00:36:06.954Z,19.83
2018-06-01T00:38:34.482Z,19.80
2018-06-01T00:41:01.986Z,19.07
2018-06-01T00:43:29.521Z,20.53
2018-06-01T00:45:57.039Z,19.40
2018-06-01T00:48:24.565Z,19.20
2018-06-01T00:50:52.193Z,18.87
2018-06-01T00:53:19.706Z,20.00
2018-06-01T00:55:47.237Z,19.20
2018-06-01T00:58:15.514Z,18.83
2018-06-01T01:00:43.074Z,18.70
2018-06-01T01:03:10.601Z,19.63
2018-06-01T01:05:38.112Z,18.33
2018-06-01T01:08:05.654Z,19.57
2018-06-01T01:10:33.166Z,18.40
2018-06-01T01:13:00.780Z,18.63
2018-06-01T01:15:28.309Z,19.17
2018-06-01T01:17:55.820Z,23.43
2018-06-01T01:20:23.700Z,21.17
2018-06-01T01:22:51.209Z,22.80
2018-06-01T01:25:18.717Z,22.43
2018-06-01T01:27:47.014Z,23.43
2018-06-01T01:30:14.525Z,21.83
2018-06-01T01:32:42.326Z,23.73
2018-06-01T01:35:09.859Z,22.37
2018-06-01T01:37:37.364Z,22.00
2018-06-01T01:40:04.898Z,20.53
2018-06-01T01:42:32.402Z,23.37
2018-06-01T01:44:59.913Z,20.93
2018-06-01T01:47:27.710Z,20.73
2018-06-01T01:49:55.222Z,25.37
2018-06-01T01:52:24.383Z,21.43
2018-06-01T01:54:52.221Z,20.03
2018-06-01T01:57:19.726Z,18.83
2018-06-01T01:59:47.244Z,22.37
2018-06-01T02:02:14.773Z,20.40
2018-06-01T02:04:42.301Z,22.23
2018-06-01T02:07:09.817Z,20.93
2018-06-01T02:09:37.346Z,20.40
2018-06-01T02:12:05.622Z,21.97
2018-06-01T02:14:33.441Z,21.90
2018-06-01T02:17:00.951Z,23.20
2018-06-01T02:19:28.464Z,23.40
2018-06-01T02:21:56.757Z,22.13
2018-06-01T02:24:25.036Z,20.00
2018-06-01T02:26:53.333Z,20.67
2018-06-01T02:29:21.610Z,21.97
2018-06-01T02:31:49.119Z,21.60
2018-06-01T02:34:16.650Z,20.33
2018-06-01T02:36:44.928Z,24.07
2018-06-01T02:39:12.478Z,21.37
2018-06-01T02:41:39.989Z,22.63
2018-06-01T02:44:08.261Z,18.53
2018-06-01T02:46:35.790Z,19.30
2018-06-01T02:49:03.709Z,20.13
2018-06-01T02:51:31.280Z,17.60
2018-06-01T02:53:58.782Z,17.23
2018-06-01T02:56:26.297Z,17.40
2018-06-01T02:58:53.928Z,18.33
2018-06-01T03:01:21.439Z,18.23
2018-06-01T03:03:48.974Z,18.63
2018-06-01T03:06:16.485Z,17.00
2018-06-01T03:08:44.007Z,17.50
2018-06-01T03:11:11.542Z,19.07
2018-06-01T03:13:39.049Z,17.50
2018-06-01T03:16:06.579Z,18.30
2018-06-01T03:18:34.087Z,21.23
2018-06-01T03:21:01.599Z,16.60
2018-06-01T03:23:29.134Z,16.30
2018-06-01T03:25:56.641Z,16.17
2018-06-01T03:28:24.171Z,19.73
2018-06-01T03:30:51.681Z,18.37
2018-06-01T03:33:19.189Z,15.90
2018-06-01T03:35:47.482Z,16.30
2018-06-01T03:38:14.989Z,17.03
2018-06-01T03:40:42.523Z,16.83
2018-06-01T03:43:10.799Z,17.10
2018-06-01T03:45:38.311Z,16.47
2018-06-01T03:48:05.837Z,17.50
2018-06-01T03:50:33.345Z,18.67
2018-06-01T03:53:00.883Z,16.53
2018-06-01T03:55:29.158Z,13.33
2018-06-01T03:57:56.671Z,14.67
2018-06-01T04:00:24.242Z,16.20
2018-06-01T04:02:51.768Z,17.77
2018-06-01T04:05:19.321Z,18.87
2018-06-01T04:07:47.046Z,17.63
2018-06-01T04:10:14.560Z,16.97
2018-06-01T04:12:42.091Z,15.33
2018-06-01T04:15:10.369Z,15.60
2018-06-01T04:17:38.665Z,10.30
2018-06-01T04:20:06.939Z,7.90
2018-06-01T04:22:35.211Z,5.60
2018-06-01T04:25:02.751Z,4.67
2018-06-01T04:27:30.260Z,4.60
2018-06-01T04:30:08.120Z,5.47
2018-06-01T04:32:35.622Z,6.57
2018-06-01T04:35:03.966Z,8.03
2018-06-01T04:40:22.161Z,8.87
